createdAt,value
2018-09-09T00:01:15.488Z,19.50
2018-09-09T00:03:44.704Z,18.80
2018-09-09T00:06:13.633Z,20.23
2018-09-09T00:08:42.794Z,20.90
2018-09-09T00:11:11.714Z,19.93
2018-09-09T00:13:40.672Z,22.27
2018-09-09T00:16:10.008Z,21.63
2018-09-09T00:18:38.881Z,22.53
2018-09-09T00:21:07.849Z,20.60
2018-09-09T00:23:36.815Z,21.70
2018-09-09T00:26:05.757Z,21.50
2018-09-09T00:28:35.040Z,21.13
2018-09-09T00:31:04.345Z,21.43
2018-09-09T00:33:33.277Z,21.60
2018-09-09T00:36:02.497Z,21.27
2018-09-09T00:38:31.344Z,22.07
2018-09-09T00:41:00.240Z,21.47
2018-09-09T00:43:29.501Z,21.40
2018-09-09T00:45:58.547Z,21.90
2018-09-09T00:48:27.747Z,22.30
2018-09-09T00:51:01.763Z,22.30
2018-09-09T00:53:35.692Z,24.07
2018-09-09T00:56:04.904Z,22.70
2018-09-09T00:58:33.905Z,23.83
2018-09-09T01:01:07.871Z,22.63
2018-09-09T01:03:37.076Z,21.67
2018-09-09T01:06:06.620Z,21.33
2018-09-09T01:08:35.512Z,21.43
2018-09-09T01:11:04.398Z,20.30
2018-09-09T01:13:33.329Z,20.83
2018-09-09T01:16:02.316Z,19.77
2018-09-09T01:18:31.448Z,20.87
2018-09-09T01:21:00.379Z,21.63
2018-09-09T01:23:29.292Z,20.47
2018-09-09T01:25:58.632Z,20.73
2018-09-09T01:28:27.581Z,21.33
2018-09-09T01:30:56.776Z,21.07
2018-09-09T01:33:26.163Z,20.93
2018-09-09T01:35:55.082Z,20.47
2018-09-09T01:38:24.061Z,21.97
2018-09-09T01:40:53.027Z,21.77
2018-09-09T01:43:21.964Z,20.90
2018-09-09T01:45:51.345Z,22.27
2018-09-09T01:48:20.613Z,23.20
2018-09-09T01:50:49.517Z,26.27
2018-09-09T01:53:18.439Z,26.43
2018-09-09T01:55:47.427Z,25.00
2018-09-09T01:58:16.551Z,24.27
2018-09-09T02:00:45.480Z,23.60
2018-09-09T02:03:14.761Z,23.53
2018-09-09T02:05:43.801Z,23.57
2018-09-09T02:08:12.876Z,24.07
2018-09-09T02:10:42.099Z,21.67
2018-09-09T02:13:11.033Z,22.30
2018-09-09T02:15:39.900Z,21.80
2018-09-09T02:18:08.868Z,23.33
2018-09-09T02:20:38.132Z,22.87
2018-09-09T02:23:07.529Z,25.23
2018-09-09T02:25:36.836Z,25.13
2018-09-09T02:28:05.760Z,23.90
2018-09-09T02:30:35.107Z,24.33
2018-09-09T02:33:04.032Z,23.70
2018-09-09T02:35:32.882Z,25.30
2018-09-09T02:38:02.660Z,25.23
2018-09-09T02:40:31.520Z,23.57
2018-09-09T02:43:00.595Z,23.53
2018-09-09T02:45:29.892Z,21.80
2018-09-09T02:47:59.015Z,22.63
2018-09-09T02:50:28.008Z,22.80
2018-09-09T02:52:56.883Z,22.13
2018-09-09T02:55:25.828Z,23.70
2018-09-09T02:57:54.670Z,23.03
2018-09-09T03:00:23.556Z,24.17
2018-09-09T03:02:52.411Z,22.77
2018-09-09T03:05:21.328Z,23.43
2018-09-09T03:07:50.316Z,24.30
2018-09-09T03:10:19.215Z,23.53
2018-09-09T03:12:48.303Z,24.93
2018-09-09T03:15:17.200Z,24.57
2018-09-09T03:17:46.215Z,24.43
2018-09-09T03:20:15.144Z,25.10
2018-09-09T03:22:44.105Z,24.47
2018-09-09T03:25:12.983Z,24.60
2018-09-09T03:27:41.957Z,25.23
2018-09-09T03:30:10.935Z,24.97
2018-09-09T03:32:40.161Z,25.20
2018-09-09T03:35:09.091Z,23.83
2018-09-09T03:37:38.017Z,24.57
2018-09-09T03:40:06.932Z,27.13
2018-09-09T03:42:35.885Z,26.70
2018-09-09T03:45:05.288Z,26.67
2018-09-09T03:47:34.648Z,26.83
2018-09-09T03:50:03.462Z,27.90
2018-09-09T03:52:32.445Z,31.83
2018-09-09T03:55:01.411Z,31.73
2018-09-09T03:57:30.305Z,26.17
2018-09-09T03:59:59.139Z,25.10
2018-09-09T04:02:28.163Z,28.13
2018-09-09T04:04:57.149Z,25.33
2018-09-09T04:07:26.017Z,26.37
2018-09-09T04:09:54.939Z,27.63
2018-09-09T04:12:23.916Z,26.23
2018-09-09T04:14:52.899Z,27.27
2018-09-09T04:17:21.832Z,27.40
2018-09-09T04:19:50.800Z,25.80
2018-09-09T04:22:19.873Z,25.10
2018-09-09T04:24:48.699Z,24.90
2018-09-09T04:27:18.174Z,24.43
2018-09-09T04:29:47.052Z,23.33
2018-09-09T04:32:16.002Z,22.63
2018-09-09T04:34:45.364Z,20.47
2018-09-09T04:37:14.325Z,20.97
2018-09-09T04:39:43.172Z,22.23
2018-09-09T04:42:12.108Z,24.07
2018-09-09T04:44:41.057Z,24.60
2018-09-09T04:47:09.989Z,24.53
2018-09-09T04:49:38.933Z,25.40
2018-09-09T04:52:07.773Z,25.97
2018-09-09T04:54:36.702Z,25.77
2018-09-09T04:57:05.568Z,24.30
2018-09-09T04:59:34.625Z,24.53
2018-09-09T05:02:03.640Z,25.93
2018-09-09T05:04:32.556Z,24.67
2018-09-09T05:07:01.695Z,25.90
2018-09-09T05:09:30.917Z,27.53
2018-09-09T05:11:59.795Z,22.63
2018-09-09T05:14:28.643Z,21.57
2018-09-09T05:16:57.443Z,21.53
2018-09-09T05:19:26.299Z,21.30
2018-09-09T05:21:55.318Z,21.13
2018-09-09T05:24:24.268Z,19.23
2018-09-09T05:26:53.217Z,19.83
2018-09-09T05:29:22.232Z,20.97
2018-09-09T05:31:51.208Z,19.30
2018-09-09T05:34:20.016Z,19.87
2018-09-09T05:36:49.268Z,19.23
2018-09-09T05:39:18.247Z,19.67
2018-09-09T05:41:47.369Z,20.13
2018-09-09T05:44:16.269Z,20.77
2018-09-09T05:46:45.224Z,73.63
2018-09-09T05:49:14.471Z,21.70
2018-09-09T05:51:43.320Z,21.27
2018-09-09T05:54:12.436Z,21.87
2018-09-09T05:56:41.868Z,23.00
2018-09-09T05:59:11.083Z,22.70
2018-09-09T06:01:39.947Z,23.63
2018-09-09T06:04:08.864Z,24.10
2018-09-09T06:06:37.848Z,23.87
2018-09-09T06:09:08.625Z,23.47
2018-09-09T06:11:37.551Z,22.70
2018-09-09T06:14:06.557Z,22.60
2018-09-09T06:16:36.179Z,22.40
2018-09-09T06:19:05.436Z,21.57
2018-09-09T06:21:34.592Z,21.27
2018-09-09T06:24:03.612Z,18.50
2018-09-09T06:26:32.667Z,19.17
2018-09-09T06:29:01.629Z,17.27
2018-09-09T06:31:30.523Z,16.37
2018-09-09T06:33:59.462Z,14.73
2018-09-09T06:36:28.435Z,15.33
2018-09-09T06:38:57.379Z,15.67
2018-09-09T06:41:26.313Z,16.20
2018-09-09T06:43:55.214Z,15.83
2018-09-09T06:46:24.171Z,16.00
2018-09-09T06:48:53.208Z,15.67
2018-09-09T06:51:22.192Z,15.67
2018-09-09T06:53:51.444Z,15.57
2018-09-09T06:56:20.453Z,14.77
2018-09-09T06:58:49.474Z,14.87
2018-09-09T07:01:18.320Z,14.97
2018-09-09T07:03:47.796Z,14.03
2018-09-09T07:06:16.989Z,15.40
2018-09-09T07:08:45.900Z,14.83
2018-09-09T07:11:15.387Z,14.50
2018-09-09T07:13:44.307Z,14.93
2018-09-09T07:16:13.492Z,15.53
2018-09-09T07:18:42.428Z,14.30
2018-09-09T07:21:11.336Z,14.83
2018-09-09T07:23:40.205Z,14.90
2018-09-09T07:26:09.504Z,14.43
2018-09-09T07:28:38.463Z,15.20
2018-09-09T07:31:07.412Z,16.23
2018-09-09T07:33:36.316Z,14.13
2018-09-09T07:36:05.175Z,14.40
2018-09-09T07:38:34.117Z,14.30
2018-09-09T07:41:03.247Z,14.20
2018-09-09T07:43:32.215Z,13.67
2018-09-09T07:46:01.145Z,13.03
2018-09-09T07:48:30.190Z,12.53
2018-09-09T07:50:59.461Z,13.57
2018-09-09T07:53:28.655Z,13.33
2018-09-09T07:55:57.799Z,16.13
2018-09-09T07:58:26.662Z,13.67
2018-09-09T08:00:55.800Z,12.53
2018-09-09T08:03:24.740Z,14.27
2018-09-09T08:05:53.672Z,16.47
2018-09-09T08:08:22.964Z,13.93
2018-09-09T08:10:51.896Z,19.10
2018-09-09T08:13:20.808Z,13.87
2018-09-09T08:15:49.717Z,14.33
2018-09-09T08:18:19.087Z,13.33
2018-09-09T08:20:48.266Z,14.30
2018-09-09T08:23:17.470Z,13.20
2018-09-09T08:25:46.268Z,12.83
2018-09-09T08:28:15.203Z,12.47
2018-09-09T08:30:44.085Z,14.40
2018-09-09T08:33:13.062Z,13.40
2018-09-09T08:35:42.360Z,14.00
2018-09-09T08:38:11.204Z,13.20
2018-09-09T08:40:40.146Z,13.90
2018-09-09T08:43:08.997Z,13.17
2018-09-09T08:45:37.912Z,14.53
2018-09-09T08:48:06.928Z,13.80
2018-09-09T08:50:35.827Z,13.93
2018-09-09T08:53:04.811Z,14.03
2018-09-09T08:55:33.940Z,13.23
2018-09-09T08:58:03.245Z,13.73
2018-09-09T09:00:32.701Z,13.13
2018-09-09T09:03:01.595Z,14.60
2018-09-09T09:05:30.473Z,13.00
2018-09-09T09:07:59.807Z,12.67
2018-09-09T09:10:28.773Z,13.33
2018-09-09T09:12:57.686Z,12.83
2018-09-09T09:15:26.701Z,13.50
2018-09-09T09:17:55.655Z,12.43
2018-09-09T09:20:24.561Z,13.20
2018-09-09T09:22:53.945Z,12.90
2018-09-09T09:25:23.090Z,11.97
2018-09-09T09:27:52.073Z,11.70
2018-09-09T09:30:21.008Z,11.83
2018-09-09T09:32:49.848Z,11.40
2018-09-09T09:35:19.068Z,11.00
2018-09-09T09:37:48.060Z,12.43
2018-09-09T09:40:17.049Z,11.63
2018-09-09T09:42:45.852Z,12.43
2018-09-09T09:45:14.701Z,11.67
2018-09-09T09:47:43.588Z,12.77
2018-09-09T09:50:12.522Z,12.70
2018-09-09T09:52:41.415Z,12.10
2018-09-09T09:55:10.344Z,13.73
2018-09-09T09:57:39.385Z,12.40
2018-09-09T10:00:11.217Z,12.57
2018-09-09T10:02:40.268Z,12.50
2018-09-09T10:05:09.616Z,12.90
2018-09-09T10:07:38.740Z,13.83
2018-09-09T10:10:07.720Z,12.83
2018-09-09T10:12:36.976Z,13.77
2018-09-09T10:15:05.907Z,13.60
2018-09-09T10:17:34.877Z,13.27
2018-09-09T10:20:04.177Z,13.43
2018-09-09T10:22:33.202Z,13.33
2018-09-09T10:25:02.289Z,12.80
2018-09-09T10:27:31.301Z,14.17
2018-09-09T10:30:00.267Z,13.30
2018-09-09T10:32:29.800Z,12.67
2018-09-09T10:34:58.808Z,13.57
2018-09-09T10:37:28.019Z,12.33
2018-09-09T10:39:57.294Z,12.30
2018-09-09T10:42:26.313Z,13.00
2018-09-09T10:44:55.205Z,13.97
2018-09-09T10:47:24.068Z,12.90
2018-09-09T10:49:53.239Z,12.43
2018-09-09T10:52:22.361Z,12.77
2018-09-09T10:54:51.541Z,12.10
2018-09-09T10:57:20.533Z,12.63
2018-09-09T10:59:49.736Z,12.13
2018-09-09T11:02:18.929Z,13.20
2018-09-09T11:04:48.108Z,12.47
2018-09-09T11:07:17.093Z,12.83
2018-09-09T11:09:46.100Z,13.23
2018-09-09T11:12:15.012Z,13.10
2018-09-09T11:14:43.928Z,12.77
2018-09-09T11:17:12.825Z,12.00
2018-09-09T11:19:41.888Z,12.20
2018-09-09T11:22:10.799Z,11.40
2018-09-09T11:24:40.452Z,11.33
2018-09-09T11:27:09.275Z,11.67
2018-09-09T11:29:38.412Z,13.37
2018-09-09T11:32:07.622Z,10.83
2018-09-09T11:34:37.043Z,10.90
2018-09-09T11:37:06.420Z,10.83
2018-09-09T11:39:35.580Z,10.40
2018-09-09T11:42:04.512Z,10.30
2018-09-09T11:44:33.588Z,10.53
2018-09-09T11:47:02.613Z,11.03
2018-09-09T11:49:31.538Z,10.83
2018-09-09T11:52:00.665Z,10.30
2018-09-09T11:54:29.544Z,11.07
2018-09-09T11:56:58.385Z,11.37
2018-09-09T11:59:27.265Z,12.30
2018-09-09T12:01:56.544Z,11.17
2018-09-09T12:04:25.448Z,11.97
2018-09-09T12:06:54.376Z,12.63
2018-09-09T12:09:23.273Z,12.60
2018-09-09T12:11:52.287Z,13.93
2018-09-09T12:14:21.535Z,13.10
2018-09-09T12:16:50.827Z,12.20
2018-09-09T12:19:19.839Z,12.93
2018-09-09T12:21:48.781Z,12.37
2018-09-09T12:24:17.972Z,14.33
2018-09-09T12:26:47.235Z,13.27
2018-09-09T12:29:16.119Z,14.13
2018-09-09T12:31:45.229Z,12.93
2018-09-09T12:34:14.207Z,10.83
2018-09-09T12:36:43.040Z,10.70
2018-09-09T12:39:11.983Z,11.27
2018-09-09T12:41:40.944Z,10.80
2018-09-09T12:44:15.045Z,12.10
2018-09-09T12:46:48.974Z,11.10
2018-09-09T12:49:17.775Z,11.97
2018-09-09T12:51:46.701Z,11.80
2018-09-09T12:54:15.948Z,11.50
2018-09-09T12:56:45.156Z,11.43
2018-09-09T12:59:14.633Z,11.57
2018-09-09T13:01:43.881Z,10.97
2018-09-09T13:04:12.841Z,11.57
2018-09-09T13:06:41.810Z,11.03
2018-09-09T13:09:10.968Z,12.00
2018-09-09T13:11:40.224Z,11.47
2018-09-09T13:14:09.056Z,10.73
2018-09-09T13:16:37.979Z,10.60
2018-09-09T13:19:07.063Z,11.37
2018-09-09T13:21:35.932Z,10.53
2018-09-09T13:24:04.763Z,11.20
2018-09-09T13:26:33.907Z,11.30
2018-09-09T13:29:03.160Z,10.03
2018-09-09T13:31:32.599Z,11.13
2018-09-09T13:34:01.521Z,10.63
2018-09-09T13:36:30.316Z,10.90
2018-09-09T13:38:59.228Z,11.07
2018-09-09T13:41:28.167Z,10.97
2018-09-09T13:43:57.120Z,10.03
2018-09-09T13:46:26.085Z,10.37
2018-09-09T13:48:55.027Z,10.23
2018-09-09T13:51:23.835Z,9.87
2018-09-09T13:53:52.784Z,11.00
2018-09-09T13:56:21.685Z,10.70
2018-09-09T13:58:50.600Z,9.97
2018-09-09T14:01:19.519Z,10.70
2018-09-09T14:03:48.475Z,10.20
2018-09-09T14:06:17.705Z,10.13
2018-09-09T14:08:47.177Z,9.43
2018-09-09T14:11:16.283Z,9.50
2018-09-09T14:13:45.493Z,9.63
2018-09-09T14:16:14.416Z,8.57
2018-09-09T14:18:43.320Z,9.17
2018-09-09T14:21:12.215Z,8.97
2018-09-09T14:23:41.057Z,8.93
2018-09-09T14:26:09.976Z,9.17
2018-09-09T14:28:38.864Z,9.30
2018-09-09T14:31:07.663Z,9.80
2018-09-09T14:33:36.708Z,8.57
2018-09-09T14:36:05.627Z,8.80
2018-09-09T14:38:34.538Z,9.27
2018-09-09T14:41:03.508Z,9.70
2018-09-09T14:43:32.485Z,8.73
2018-09-09T14:46:01.975Z,9.00
2018-09-09T14:48:30.950Z,8.87
2018-09-09T14:51:00.077Z,8.53
2018-09-09T14:53:28.920Z,9.10
2018-09-09T14:55:57.828Z,8.83
2018-09-09T14:58:26.709Z,9.03
2018-09-09T15:00:55.996Z,9.00
2018-09-09T15:03:25.177Z,8.80
2018-09-09T15:05:54.064Z,8.57
2018-09-09T15:08:23.024Z,8.90
2018-09-09T15:10:51.940Z,9.27
2018-09-09T15:13:20.880Z,9.00
2018-09-09T15:15:50.207Z,9.30
2018-09-09T15:18:18.997Z,9.20
2018-09-09T15:20:47.928Z,9.20
2018-09-09T15:23:16.890Z,8.97
2018-09-09T15:25:45.740Z,9.53
2018-09-09T15:28:14.841Z,9.60
2018-09-09T15:30:43.688Z,9.17
2018-09-09T15:33:12.673Z,9.20
2018-09-09T15:35:41.615Z,8.70
2018-09-09T15:38:10.784Z,9.50
2018-09-09T15:40:39.930Z,9.30
2018-09-09T15:43:08.904Z,9.53
2018-09-09T15:45:37.805Z,10.17
2018-09-09T15:48:06.628Z,9.53
2018-09-09T15:50:35.581Z,9.13
2018-09-09T15:53:04.524Z,10.10
2018-09-09T15:55:33.483Z,11.04
2018-09-09T15:58:02.441Z,10.10
2018-09-09T16:00:31.539Z,10.97
2018-09-09T16:03:00.285Z,19.27
2018-09-09T16:05:29.180Z,9.97
2018-09-09T16:07:58.089Z,10.73
2018-09-09T16:10:27.371Z,9.50
2018-09-09T16:12:56.919Z,10.93
2018-09-09T16:15:26.194Z,16.90
2018-09-09T16:17:55.517Z,10.90
2018-09-09T16:20:24.612Z,12.23
2018-09-09T16:22:53.439Z,10.93
2018-09-09T16:25:22.702Z,10.80
2018-09-09T16:27:51.581Z,10.87
2018-09-09T16:30:20.508Z,11.53
2018-09-09T16:32:49.430Z,11.43
2018-09-09T16:35:18.681Z,12.00
2018-09-09T16:37:47.579Z,12.23
2018-09-09T16:40:16.430Z,14.10
2018-09-09T16:42:45.524Z,13.30
2018-09-09T16:45:14.561Z,13.47
2018-09-09T16:47:43.479Z,16.20
2018-09-09T16:50:12.421Z,33.60
2018-09-09T16:52:41.504Z,14.07
2018-09-09T16:55:10.351Z,12.80
2018-09-09T16:57:39.362Z,13.73
2018-09-09T17:00:08.406Z,12.27
2018-09-09T17:02:37.778Z,12.43
2018-09-09T17:05:06.948Z,15.13
2018-09-09T17:07:36.192Z,12.80
2018-09-09T17:10:05.537Z,12.23
2018-09-09T17:12:34.452Z,12.93
2018-09-09T17:15:03.324Z,12.43
2018-09-09T17:17:32.304Z,12.77
2018-09-09T17:20:01.250Z,13.23
2018-09-09T17:22:30.746Z,13.43
2018-09-09T17:24:59.981Z,14.60
2018-09-09T17:27:29.000Z,14.20
2018-09-09T17:29:57.993Z,13.53
2018-09-09T17:32:26.812Z,12.90
2018-09-09T17:34:55.769Z,13.27
2018-09-09T17:37:24.918Z,12.47
2018-09-09T17:39:53.846Z,12.20
2018-09-09T17:42:23.140Z,11.90
2018-09-09T17:44:52.420Z,12.13
2018-09-09T17:47:21.345Z,12.80
2018-09-09T17:49:50.308Z,12.17
2018-09-09T17:52:19.380Z,13.00
2018-09-09T17:54:48.416Z,13.10
2018-09-09T17:57:17.445Z,12.97
2018-09-09T17:59:46.305Z,13.27
2018-09-09T18:02:15.199Z,12.47
2018-09-09T18:04:44.084Z,13.47
2018-09-09T18:07:12.980Z,13.27
2018-09-09T18:09:42.928Z,12.20
2018-09-09T18:12:11.787Z,12.80
2018-09-09T18:14:40.688Z,13.37
2018-09-09T18:17:09.920Z,12.47
2018-09-09T18:19:38.994Z,12.97
2018-09-09T18:22:07.949Z,12.67
2018-09-09T18:24:36.781Z,12.40
2018-09-09T18:27:05.729Z,12.90
2018-09-09T18:29:35.082Z,12.53
2018-09-09T18:32:04.031Z,13.50
2018-09-09T18:34:32.847Z,13.73
2018-09-09T18:37:01.815Z,14.23
2018-09-09T18:39:30.764Z,12.43
2018-09-09T18:41:59.615Z,12.43
2018-09-09T18:44:28.505Z,11.93
2018-09-09T18:46:57.524Z,10.73
2018-09-09T18:49:26.801Z,10.43
2018-09-09T18:51:55.825Z,9.93
2018-09-09T18:54:24.793Z,10.00
2018-09-09T18:56:53.708Z,9.90
2018-09-09T18:59:23.091Z,10.10
2018-09-09T19:01:52.313Z,10.17
2018-09-09T19:04:21.264Z,10.27
2018-09-09T19:06:50.337Z,10.83
2018-09-09T19:09:19.389Z,10.10
2018-09-09T19:11:48.320Z,10.50
2018-09-09T19:14:17.241Z,10.58
2018-09-09T19:16:46.160Z,10.23
2018-09-09T19:19:15.099Z,10.43
2018-09-09T19:21:44.093Z,10.40
2018-09-09T19:24:13.025Z,10.97
2018-09-09T19:26:42.048Z,10.30
2018-09-09T19:29:10.929Z,10.63
2018-09-09T19:31:40.009Z,10.20
2018-09-09T19:34:09.139Z,10.03
2018-09-09T19:36:37.999Z,9.43
2018-09-09T19:39:09.361Z,10.50
2018-09-09T19:41:38.216Z,10.33
2018-09-09T19:44:07.450Z,10.33
2018-09-09T19:46:36.513Z,12.10
2018-09-09T19:49:05.967Z,11.13
2018-09-09T19:51:35.076Z,11.70
2018-09-09T19:54:03.984Z,11.90
2018-09-09T19:56:32.796Z,11.53
2018-09-09T19:59:01.760Z,11.77
2018-09-09T20:01:30.801Z,11.77
2018-09-09T20:03:59.640Z,12.23
2018-09-09T20:06:28.552Z,12.60
2018-09-09T20:08:57.524Z,11.37
2018-09-09T20:11:26.572Z,12.70
2018-09-09T20:13:55.537Z,13.67
2018-09-09T20:16:24.460Z,12.30
2018-09-09T20:18:53.371Z,12.73
2018-09-09T20:21:22.548Z,12.70
2018-09-09T20:23:51.428Z,12.10
2018-09-09T20:26:20.463Z,12.47
2018-09-09T20:28:49.873Z,12.63
2018-09-09T20:31:18.929Z,12.37
2018-09-09T20:33:48.016Z,12.07
2018-09-09T20:36:16.836Z,11.57
2018-09-09T20:38:45.680Z,11.93
2018-09-09T20:41:14.805Z,11.40
2018-09-09T20:43:43.876Z,10.57
2018-09-09T20:46:12.925Z,10.13
2018-09-09T20:48:41.853Z,9.90
2018-09-09T20:51:10.731Z,10.60
2018-09-09T20:53:39.664Z,10.07
2018-09-09T20:56:08.597Z,9.57
2018-09-09T20:58:37.469Z,10.40
2018-09-09T21:01:06.821Z,9.87
2018-09-09T21:03:35.962Z,9.97
2018-09-09T21:06:04.880Z,10.10
2018-09-09T21:08:33.988Z,10.87
2018-09-09T21:11:02.961Z,10.27
2018-09-09T21:13:31.805Z,9.80
2018-09-09T21:16:00.772Z,10.20
2018-09-09T21:18:29.732Z,10.47
2018-09-09T21:20:58.664Z,9.33
2018-09-09T21:23:27.693Z,10.20
2018-09-09T21:25:56.584Z,10.40
2018-09-09T21:28:25.567Z,9.27
2018-09-09T21:30:54.538Z,8.70
2018-09-09T21:33:23.632Z,9.17
2018-09-09T21:35:52.879Z,9.10
2018-09-09T21:38:22.012Z,8.77
2018-09-09T21:40:51.123Z,9.30
2018-09-09T21:43:20.413Z,10.00
2018-09-09T21:45:49.591Z,9.60
2018-09-09T21:48:19.059Z,10.27
2018-09-09T21:50:48.840Z,9.83
2018-09-09T21:53:18.032Z,10.43
2018-09-09T21:55:47.376Z,10.00
2018-09-09T21:58:16.308Z,10.33
2018-09-09T22:00:50.848Z,9.77
2018-09-09T22:03:19.674Z,10.20
2018-09-09T22:05:48.713Z,10.30
2018-09-09T22:08:17.962Z,11.00
2018-09-09T22:10:47.104Z,9.70
2018-09-09T22:13:16.418Z,9.57
2018-09-09T22:15:46.252Z,9.23
2018-09-09T22:18:15.343Z,9.03
2018-09-09T22:20:44.668Z,8.10
2018-09-09T22:23:13.519Z,9.53
2018-09-09T22:25:42.360Z,9.20
2018-09-09T22:28:11.624Z,9.13
2018-09-09T22:30:40.996Z,8.97
2018-09-09T22:33:10.141Z,9.10
2018-09-09T22:35:39.051Z,8.50
2018-09-09T22:38:07.891Z,9.00
2018-09-09T22:40:36.752Z,9.33
2018-09-09T22:43:05.718Z,9.37
2018-09-09T22:45:34.689Z,9.40
2018-09-09T22:48:03.664Z,9.83
2018-09-09T22:50:32.948Z,9.17
2018-09-09T22:53:01.901Z,9.63
2018-09-09T22:55:30.973Z,9.33
2018-09-09T22:57:59.817Z,9.57
2018-09-09T23:00:28.789Z,9.53
2018-09-09T23:02:57.832Z,9.80
2018-09-09T23:05:27.065Z,9.50
2018-09-09T23:07:56.169Z,9.37
2018-09-09T23:10:25.347Z,9.30
2018-09-09T23:12:54.460Z,9.40
2018-09-09T23:15:28.156Z,8.93
2018-09-09T23:17:57.004Z,9.07
2018-09-09T23:20:25.852Z,9.43
2018-09-09T23:22:54.708Z,8.53
2018-09-09T23:25:24.021Z,8.83
2018-09-09T23:27:53.653Z,9.03
2018-09-09T23:30:22.503Z,8.67
2018-09-09T23:32:51.383Z,8.73
2018-09-09T23:35:20.244Z,8.60
2018-09-09T23:37:49.339Z,8.93
2018-09-09T23:40:18.574Z,8.87
2018-09-09T23:42:48.159Z,8.33
2018-09-09T23:45:17.600Z,8.70
2018-09-09T23:47:46.478Z,9.13
2018-09-09T23:50:15.363Z,8.23
2018-09-09T23:52:44.573Z,8.30
2018-09-09T23:55:13.791Z,8.77
2018-09-09T23:57:43.124Z,9.13
